createdAt,value
2023-05-06T00:00:13.484Z,8.60
2023-05-06T00:02:45.291Z,8.60
2023-05-06T00:05:15.246Z,8.50
2023-05-06T00:07:44.595Z,8.50
2023-05-06T00:10:14.033Z,8.50
2023-05-06T00:12:43.281Z,8.40
2023-05-06T00:15:14.205Z,8.40
2023-05-06T00:17:43.529Z,8.30
2023-05-06T00:20:13.477Z,8.30
2023-05-06T00:22:42.681Z,8.20
2023-05-06T00:25:12.139Z,8.20
2023-05-06T00:27:41.397Z,8.20
2023-05-06T00:30:12.109Z,8.20
2023-05-06T00:32:42.873Z,8.20
2023-05-06T00:35:12.603Z,8.20
2023-05-06T00:37:41.856Z,8.10
2023-05-06T00:40:12.444Z,8.10
2023-05-06T00:42:41.670Z,8.10
2023-05-06T00:45:12.223Z,8.00
2023-05-06T00:47:45.124Z,7.90
2023-05-06T00:50:14.599Z,7.80
2023-05-06T00:52:44.041Z,7.80
2023-05-06T00:55:13.497Z,7.80
2023-05-06T00:57:44.998Z,7.80
2023-05-06T01:00:16.037Z,7.70
2023-05-06T01:02:47.874Z,7.80
2023-05-06T01:05:19.370Z,7.70
2023-05-06T01:07:58.369Z,7.60
2023-05-06T01:10:35.322Z,7.60
2023-05-06T01:13:09.340Z,7.60
2023-05-06T01:15:45.540Z,7.60
2023-05-06T01:18:19.412Z,7.50
2023-05-06T01:20:51.211Z,7.50
2023-05-06T01:23:22.196Z,7.40
2023-05-06T01:25:52.845Z,7.50
2023-05-06T01:28:22.116Z,7.40
2023-05-06T01:30:59.420Z,7.40
2023-05-06T01:33:37.091Z,7.40
2023-05-06T01:36:17.249Z,7.30
2023-05-06T01:38:54.651Z,7.30
2023-05-06T01:41:26.433Z,7.30
2023-05-06T01:43:55.857Z,7.30
2023-05-06T01:46:26.248Z,7.20
2023-05-06T01:48:56.728Z,7.20
2023-05-06T01:51:26.373Z,7.20
2023-05-06T01:53:57.093Z,7.10
2023-05-06T01:56:27.295Z,7.10
2023-05-06T01:58:57.104Z,7.00
2023-05-06T02:01:27.379Z,7.00
2023-05-06T02:03:56.742Z,7.00
2023-05-06T02:06:25.991Z,6.90
2023-05-06T02:08:56.541Z,6.90
2023-05-06T02:11:27.549Z,6.90
2023-05-06T02:14:03.584Z,6.90
2023-05-06T02:16:35.689Z,6.80
2023-05-06T02:19:06.258Z,6.80
2023-05-06T02:21:35.497Z,6.80
2023-05-06T02:24:07.186Z,6.70
2023-05-06T02:26:36.334Z,6.70
2023-05-06T02:29:06.476Z,6.70
2023-05-06T02:31:35.655Z,6.60
2023-05-06T02:34:04.841Z,6.60
2023-05-06T02:36:34.455Z,6.60
2023-05-06T02:39:04.917Z,6.60
2023-05-06T02:41:35.605Z,6.50
2023-05-06T02:44:04.760Z,6.50
2023-05-06T02:46:34.337Z,6.50
2023-05-06T02:49:03.651Z,6.50
2023-05-06T02:51:32.832Z,6.50
2023-05-06T02:54:01.931Z,6.50
2023-05-06T02:56:51.249Z,6.60
2023-05-06T02:59:20.448Z,6.60
2023-05-06T03:01:49.625Z,6.60
2023-05-06T03:04:18.768Z,6.60
2023-05-06T03:06:48.007Z,6.60
2023-05-06T03:09:17.273Z,6.60
2023-05-06T03:11:46.393Z,6.60
2023-05-06T03:14:17.282Z,6.60
2023-05-06T03:16:47.465Z,6.70
2023-05-06T03:19:17.138Z,6.70
2023-05-06T03:21:47.217Z,6.80
2023-05-06T03:24:17.600Z,6.80
2023-05-06T03:26:47.109Z,6.80
2023-05-06T03:29:18.129Z,6.90
2023-05-06T03:31:51.409Z,7.00
2023-05-06T03:34:22.420Z,7.00
2023-05-06T03:36:51.608Z,7.00
2023-05-06T03:39:21.181Z,7.00
2023-05-06T03:41:50.609Z,7.10
2023-05-06T03:44:22.030Z,7.10
2023-05-06T03:46:51.423Z,7.10
2023-05-06T03:49:21.785Z,7.10
2023-05-06T03:51:51.560Z,7.10
2023-05-06T03:54:21.100Z,7.20
2023-05-06T03:56:50.270Z,7.30
2023-05-06T03:59:19.716Z,7.30
2023-05-06T04:01:50.528Z,7.30
2023-05-06T04:04:19.955Z,7.40
2023-05-06T04:06:49.079Z,7.40
2023-05-06T04:09:18.335Z,7.40
2023-05-06T04:11:48.485Z,7.40
2023-05-06T04:14:19.356Z,7.40
2023-05-06T04:16:50.394Z,7.40
2023-05-06T04:19:19.663Z,7.40
2023-05-06T04:21:49.557Z,7.40
2023-05-06T04:24:20.175Z,7.30
2023-05-06T04:26:49.398Z,7.30
2023-05-06T04:29:18.941Z,7.30
2023-05-06T04:31:59.330Z,7.30
2023-05-06T04:34:33.611Z,7.40
2023-05-06T04:37:03.965Z,7.40
2023-05-06T04:39:42.532Z,7.50
2023-05-06T04:42:11.629Z,7.40
2023-05-06T04:44:50.479Z,7.50
2023-05-06T04:47:24.752Z,7.50
2023-05-06T04:49:55.127Z,7.50
2023-05-06T04:52:25.382Z,7.50
2023-05-06T04:54:54.549Z,7.50
2023-05-06T04:57:23.750Z,7.60
2023-05-06T04:59:55.598Z,7.60
2023-05-06T05:02:26.494Z,7.60
2023-05-06T05:04:55.811Z,7.60
2023-05-06T05:07:25.420Z,7.70
2023-05-06T05:09:54.631Z,7.70
2023-05-06T05:12:24.335Z,7.70
2023-05-06T05:14:55.260Z,7.80
2023-05-06T05:17:26.168Z,7.80
2023-05-06T05:19:55.389Z,7.90
2023-05-06T05:22:24.530Z,7.90
2023-05-06T05:24:53.784Z,8.00
2023-05-06T05:27:23.598Z,8.10
2023-05-06T05:29:53.659Z,8.10
2023-05-06T05:32:23.589Z,8.20
2023-05-06T05:34:54.354Z,8.20
2023-05-06T05:37:24.064Z,8.30
2023-05-06T05:39:53.514Z,8.40
2023-05-06T05:42:22.987Z,8.40
2023-05-06T05:44:52.280Z,8.40
2023-05-06T05:47:22.533Z,8.50
2023-05-06T05:49:51.713Z,8.60
2023-05-06T05:52:22.928Z,8.60
2023-05-06T05:54:52.221Z,8.70
2023-05-06T05:57:21.505Z,8.80
2023-05-06T05:59:50.677Z,8.90
2023-05-06T06:02:19.983Z,9.10
2023-05-06T06:04:49.400Z,9.20
2023-05-06T06:07:18.721Z,9.30
2023-05-06T06:09:50.689Z,9.40
2023-05-06T06:12:20.186Z,9.50
2023-05-06T06:14:49.372Z,9.60
2023-05-06T06:17:22.835Z,9.70
2023-05-06T06:19:57.433Z,9.80
2023-05-06T06:22:26.968Z,9.90
2023-05-06T06:24:59.497Z,10.10
2023-05-06T06:27:28.639Z,10.30
2023-05-06T06:29:57.898Z,10.40
2023-05-06T06:32:27.287Z,10.60
2023-05-06T06:34:56.534Z,10.70
2023-05-06T06:37:25.895Z,10.80
2023-05-06T06:39:55.167Z,11.00
2023-05-06T06:42:26.925Z,11.20
2023-05-06T06:45:12.060Z,11.20
2023-05-06T06:47:42.399Z,11.30
2023-05-06T06:50:12.705Z,11.30
2023-05-06T06:52:42.055Z,11.30
2023-05-06T06:55:12.043Z,11.30
2023-05-06T06:57:42.777Z,11.50
2023-05-06T07:00:13.009Z,11.70
2023-05-06T07:02:42.359Z,11.60
2023-05-06T07:05:12.116Z,11.50
2023-05-06T07:07:41.471Z,11.50
2023-05-06T07:10:11.202Z,11.40
2023-05-06T07:12:41.833Z,11.40
2023-05-06T07:15:11.909Z,11.50
2023-05-06T07:17:41.375Z,11.60
2023-05-06T07:20:11.853Z,11.70
2023-05-06T07:22:41.710Z,11.70
2023-05-06T07:25:11.515Z,11.50
2023-05-06T07:27:42.291Z,11.80
2023-05-06T07:30:12.286Z,11.70
2023-05-06T07:32:42.021Z,11.80
2023-05-06T07:35:11.526Z,11.80
2023-05-06T07:37:41.031Z,12.00
2023-05-06T07:40:11.517Z,11.90
2023-05-06T07:42:43.210Z,11.90
2023-05-06T07:45:13.141Z,11.80
2023-05-06T07:47:42.798Z,12.00
2023-05-06T07:50:12.760Z,11.90
2023-05-06T07:52:42.195Z,12.00
2023-05-06T07:55:11.898Z,12.10
2023-05-06T07:57:42.685Z,12.10
2023-05-06T08:00:13.173Z,12.10
2023-05-06T08:02:45.196Z,12.10
2023-05-06T08:05:14.951Z,12.20
2023-05-06T08:07:44.362Z,12.20
2023-05-06T08:10:13.569Z,12.20
2023-05-06T08:12:44.345Z,12.30
2023-05-06T08:15:13.909Z,12.30
2023-05-06T08:17:43.117Z,12.30
2023-05-06T08:20:13.439Z,12.30
2023-05-06T08:22:42.714Z,12.30
2023-05-06T08:25:12.353Z,12.40
2023-05-06T08:27:41.789Z,12.50
2023-05-06T08:30:13.852Z,12.50
2023-05-06T08:32:43.018Z,12.60
2023-05-06T08:35:12.368Z,12.60
2023-05-06T08:37:42.735Z,12.50
2023-05-06T08:40:19.677Z,12.40
2023-05-06T08:42:49.990Z,12.40
2023-05-06T08:45:21.235Z,12.40
2023-05-06T08:47:50.515Z,12.30
2023-05-06T08:50:20.080Z,12.30
2023-05-06T08:52:50.556Z,12.30
2023-05-06T08:55:21.162Z,12.40
2023-05-06T08:57:52.254Z,12.40
2023-05-06T09:00:23.396Z,12.50
2023-05-06T09:02:52.821Z,12.50
2023-05-06T09:05:22.309Z,12.50
2023-05-06T09:07:51.530Z,12.60
2023-05-06T09:10:20.772Z,12.60
2023-05-06T09:12:50.052Z,12.70
2023-05-06T09:15:19.261Z,12.70
2023-05-06T09:17:50.024Z,12.70
2023-05-06T09:20:19.440Z,12.80
2023-05-06T09:22:49.372Z,12.70
2023-05-06T09:25:19.188Z,12.70
2023-05-06T09:27:48.432Z,12.70
2023-05-06T09:30:17.821Z,12.70
2023-05-06T09:32:49.983Z,12.70
2023-05-06T09:35:20.578Z,12.60
2023-05-06T09:37:49.761Z,12.70
2023-05-06T09:40:19.134Z,12.60
2023-05-06T09:42:51.783Z,12.50
2023-05-06T09:45:20.889Z,12.50
2023-05-06T09:47:50.859Z,12.40
2023-05-06T09:50:23.384Z,12.40
2023-05-06T09:52:53.231Z,12.40
2023-05-06T09:55:23.722Z,12.30
2023-05-06T09:57:53.103Z,12.30
2023-05-06T10:00:28.254Z,12.40
2023-05-06T10:02:58.398Z,12.50
2023-05-06T10:05:30.546Z,12.40
2023-05-06T10:08:01.048Z,12.30
2023-05-06T10:10:31.445Z,12.30
2023-05-06T10:13:00.667Z,12.40
2023-05-06T10:15:30.964Z,12.50
2023-05-06T10:18:02.176Z,12.50
2023-05-06T10:20:35.628Z,12.50
2023-05-06T10:23:12.421Z,12.50
2023-05-06T10:25:44.535Z,12.50
2023-05-06T10:28:23.011Z,12.40
2023-05-06T10:30:58.719Z,12.40
2023-05-06T10:33:29.841Z,12.40
2023-05-06T10:36:13.540Z,12.40
2023-05-06T10:38:44.890Z,12.50
2023-05-06T10:41:14.956Z,12.40
2023-05-06T10:43:45.866Z,12.40
2023-05-06T10:46:16.406Z,12.40
2023-05-06T10:49:20.927Z,12.40
2023-05-06T10:52:13.457Z,12.50
2023-05-06T10:54:50.850Z,12.50
2023-05-06T10:57:22.061Z,12.50
2023-05-06T10:59:51.508Z,12.40
2023-05-06T11:02:21.675Z,12.30
2023-05-06T11:04:53.549Z,12.30
2023-05-06T11:07:27.513Z,12.40
2023-05-06T11:09:57.917Z,12.30
2023-05-06T11:12:50.320Z,12.20
2023-05-06T11:15:27.567Z,12.20
2023-05-06T11:17:57.676Z,12.20
2023-05-06T11:20:28.082Z,12.10
2023-05-06T11:22:58.843Z,12.10
2023-05-06T11:25:49.340Z,12.20
2023-05-06T11:28:18.621Z,12.10
2023-05-06T11:30:56.605Z,12.10
2023-05-06T11:33:29.081Z,12.10
2023-05-06T11:35:58.513Z,12.00
2023-05-06T11:38:40.380Z,12.10
2023-05-06T11:41:09.939Z,12.10
2023-05-06T11:43:39.310Z,12.10
2023-05-06T11:46:08.881Z,12.10
2023-05-06T11:48:38.045Z,12.00
2023-05-06T11:51:08.497Z,12.00
2023-05-06T11:53:39.467Z,12.10
2023-05-06T11:56:09.390Z,12.00
2023-05-06T11:58:38.699Z,12.00
2023-05-06T12:01:08.119Z,12.10
2023-05-06T12:03:37.594Z,12.10
2023-05-06T12:06:07.169Z,12.00
2023-05-06T12:08:39.432Z,11.90
2023-05-06T12:11:10.006Z,11.90
2023-05-06T12:13:40.864Z,11.80
2023-05-06T12:16:12.199Z,11.80
2023-05-06T12:18:41.989Z,11.80
2023-05-06T12:21:11.352Z,11.70
2023-05-06T12:23:52.629Z,11.60
2023-05-06T12:26:22.458Z,11.60
2023-05-06T12:29:08.233Z,11.60
2023-05-06T12:31:37.762Z,11.50
2023-05-06T12:34:07.276Z,11.40
2023-05-06T12:36:41.858Z,11.50
2023-05-06T12:39:13.184Z,11.40
2023-05-06T12:41:44.468Z,11.40
2023-05-06T12:44:41.766Z,11.40
2023-05-06T12:47:20.168Z,11.40
2023-05-06T12:49:51.932Z,11.50
2023-05-06T12:52:22.188Z,11.50
2023-05-06T12:54:53.405Z,11.40
2023-05-06T12:57:23.463Z,11.30
2023-05-06T12:59:53.985Z,11.20
2023-05-06T13:02:23.415Z,11.20
2023-05-06T13:04:52.731Z,11.10
2023-05-06T13:07:22.628Z,11.00
2023-05-06T13:09:53.402Z,10.80
2023-05-06T13:12:22.547Z,10.70
2023-05-06T13:14:51.733Z,10.60
2023-05-06T13:17:21.061Z,10.50
2023-05-06T13:19:50.272Z,10.40
2023-05-06T13:22:19.460Z,10.40
2023-05-06T13:24:48.628Z,10.30
2023-05-06T13:27:19.479Z,10.20
2023-05-06T13:29:48.998Z,10.10
2023-05-06T13:32:18.247Z,10.00
2023-05-06T13:34:47.518Z,10.00
2023-05-06T13:37:16.856Z,10.00
2023-05-06T13:39:46.088Z,9.90
2023-05-06T13:42:15.288Z,9.90
2023-05-06T13:44:45.968Z,9.80
2023-05-06T13:47:15.188Z,9.70
2023-05-06T13:49:44.288Z,9.50
2023-05-06T13:52:13.482Z,9.40
2023-05-06T13:54:42.787Z,9.30
2023-05-06T13:57:11.922Z,9.20
2023-05-06T13:59:41.097Z,9.10
2023-05-06T14:02:12.469Z,9.00
2023-05-06T14:04:41.787Z,9.00
2023-05-06T14:07:10.970Z,9.00
2023-05-06T14:09:40.418Z,8.90
2023-05-06T14:12:09.690Z,8.90
2023-05-06T14:14:38.798Z,8.90
2023-05-06T14:17:07.989Z,8.90
2023-05-06T14:19:38.670Z,8.80
2023-05-06T14:22:08.077Z,8.80
2023-05-06T14:24:37.394Z,8.70
2023-05-06T14:27:07.197Z,8.60
2023-05-06T14:29:37.005Z,8.60
2023-05-06T14:32:06.599Z,8.60
2023-05-06T14:34:38.011Z,8.60
2023-05-06T14:37:08.164Z,8.60
2023-05-06T14:39:37.272Z,8.60
2023-05-06T14:42:06.516Z,8.60
2023-05-06T14:44:35.910Z,8.60
2023-05-06T14:47:05.193Z,8.60
2023-05-06T14:49:34.460Z,8.60
2023-05-06T14:52:05.090Z,8.60
2023-05-06T14:54:34.288Z,8.60
2023-05-06T14:57:03.788Z,8.50
2023-05-06T14:59:32.989Z,8.60
2023-05-06T15:02:02.296Z,8.50
2023-05-06T15:04:31.632Z,8.50
2023-05-06T15:07:01.104Z,8.50
2023-05-06T15:09:32.335Z,8.50
2023-05-06T15:12:02.066Z,8.60
2023-05-06T15:14:31.377Z,8.60
2023-05-06T15:17:00.856Z,8.60
2023-05-06T15:19:33.742Z,8.70
2023-05-06T15:22:02.852Z,8.60
2023-05-06T15:24:33.664Z,8.50
2023-05-06T15:27:03.010Z,8.40
2023-05-06T15:29:32.324Z,8.50
2023-05-06T15:32:01.646Z,8.50
2023-05-06T15:34:30.753Z,8.50
2023-05-06T15:37:01.985Z,8.50
2023-05-06T15:39:35.978Z,8.50
2023-05-06T15:42:05.632Z,8.50
2023-05-06T15:44:35.039Z,8.50
2023-05-06T15:47:04.251Z,8.50
2023-05-06T15:49:51.499Z,8.50
2023-05-06T15:52:23.221Z,8.50
2023-05-06T15:54:58.939Z,8.50
2023-05-06T15:57:31.600Z,8.40
2023-05-06T16:00:00.911Z,8.40
2023-05-06T16:02:30.224Z,8.30
2023-05-06T16:04:59.832Z,8.30
2023-05-06T16:07:30.072Z,8.30
2023-05-06T16:10:00.819Z,8.20
2023-05-06T16:12:32.471Z,8.20
2023-05-06T16:15:03.477Z,8.20
2023-05-06T16:17:37.770Z,8.10
2023-05-06T16:20:10.634Z,8.10
2023-05-06T16:22:41.212Z,8.10
2023-05-06T16:25:12.188Z,8.10
2023-05-06T16:27:42.105Z,8.10
2023-05-06T16:30:12.360Z,8.00
2023-05-06T16:32:41.902Z,8.00
2023-05-06T16:35:11.721Z,8.10
2023-05-06T16:37:41.268Z,8.00
2023-05-06T16:40:13.420Z,8.10
2023-05-06T16:42:42.766Z,8.10
2023-05-06T16:45:13.031Z,8.00
2023-05-06T16:47:42.540Z,8.10
2023-05-06T16:50:12.508Z,8.10
2023-05-06T16:52:41.956Z,8.10
2023-05-06T16:55:12.959Z,8.10
2023-05-06T16:57:42.165Z,8.00
2023-05-06T17:00:12.662Z,8.00
2023-05-06T17:02:42.427Z,8.00
2023-05-06T17:05:12.008Z,7.90
2023-05-06T17:07:41.526Z,7.90
2023-05-06T17:10:13.380Z,7.90
2023-05-06T17:12:43.146Z,7.90
2023-05-06T17:15:13.331Z,7.90
2023-05-06T17:17:43.091Z,7.90
2023-05-06T17:20:13.055Z,7.90
2023-05-06T17:22:42.631Z,7.90
2023-05-06T17:25:14.801Z,7.90
2023-05-06T17:27:44.318Z,7.90
2023-05-06T17:30:15.440Z,7.90
2023-05-06T17:32:45.173Z,7.80
2023-05-06T17:35:15.307Z,7.80
2023-05-06T17:37:45.271Z,7.80
2023-05-06T17:40:16.681Z,7.80
2023-05-06T17:42:46.354Z,7.70
2023-05-06T17:45:16.035Z,7.70
2023-05-06T17:47:45.614Z,7.70
2023-05-06T17:50:15.446Z,7.70
2023-05-06T17:52:46.627Z,7.70
2023-05-06T17:55:18.048Z,7.70
2023-05-06T17:57:47.831Z,7.70
2023-05-06T18:00:18.935Z,7.70
2023-05-06T18:02:48.916Z,7.70
2023-05-06T18:05:18.994Z,7.70
2023-05-06T18:07:49.051Z,7.60
2023-05-06T18:10:20.461Z,7.60
2023-05-06T18:12:50.190Z,7.60
2023-05-06T18:15:20.048Z,7.60
2023-05-06T18:17:49.996Z,7.60
2023-05-06T18:20:19.921Z,7.60
2023-05-06T18:22:49.910Z,7.60
2023-05-06T18:25:21.307Z,7.60
2023-05-06T18:27:51.241Z,7.60
2023-05-06T18:30:21.134Z,7.50
2023-05-06T18:32:52.242Z,7.50
2023-05-06T18:35:22.818Z,7.50
2023-05-06T18:37:52.866Z,7.50
2023-05-06T18:40:24.000Z,7.50
2023-05-06T18:42:53.821Z,7.50
2023-05-06T18:45:23.749Z,7.50
2023-05-06T18:47:53.713Z,7.50
2023-05-06T18:50:24.066Z,7.40
2023-05-06T18:52:56.902Z,7.40
2023-05-06T18:55:28.351Z,7.40
2023-05-06T18:57:58.195Z,7.40
2023-05-06T19:00:29.343Z,7.40
2023-05-06T19:02:59.209Z,7.40
2023-05-06T19:05:29.199Z,7.30
2023-05-06T19:07:58.938Z,7.30
2023-05-06T19:10:30.247Z,7.20
2023-05-06T19:13:00.334Z,7.30
2023-05-06T19:15:30.510Z,7.30
2023-05-06T19:18:00.512Z,7.30
2023-05-06T19:20:30.435Z,7.30
2023-05-06T19:23:01.506Z,7.30
2023-05-06T19:25:32.806Z,7.30
2023-05-06T19:28:02.638Z,7.30
2023-05-06T19:30:34.747Z,7.20
2023-05-06T19:33:05.327Z,7.20
2023-05-06T19:35:35.873Z,7.30
2023-05-06T19:38:07.021Z,7.30
2023-05-06T19:40:38.317Z,7.20
2023-05-06T19:43:09.046Z,7.30
2023-05-06T19:45:39.041Z,7.20
2023-05-06T19:48:08.973Z,7.20
2023-05-06T19:50:38.752Z,7.20
2023-05-06T19:53:08.704Z,7.20
2023-05-06T19:55:40.006Z,7.20
2023-05-06T19:58:10.139Z,7.20
2023-05-06T20:00:39.989Z,7.10
2023-05-06T20:03:10.073Z,7.10
2023-05-06T20:05:40.188Z,7.20
2023-05-06T20:08:11.635Z,7.20
2023-05-06T20:10:43.197Z,7.20
2023-05-06T20:13:13.361Z,7.20
2023-05-06T20:15:43.580Z,7.20
2023-05-06T20:18:13.392Z,7.20
2023-05-06T20:20:43.735Z,7.20
2023-05-06T20:23:13.545Z,7.30
2023-05-06T20:25:44.933Z,7.20
2023-05-06T20:28:14.682Z,7.20
2023-05-06T20:30:44.552Z,7.20
2023-05-06T20:33:14.459Z,7.20
2023-05-06T20:35:44.399Z,7.30
2023-05-06T20:38:17.232Z,7.30
2023-05-06T20:40:49.268Z,7.30
2023-05-06T20:43:18.710Z,7.20
2023-05-06T20:45:48.089Z,7.20
2023-05-06T20:48:17.696Z,7.10
2023-05-06T20:50:47.030Z,7.10
2023-05-06T20:53:16.598Z,7.10
2023-05-06T20:55:45.760Z,7.10
2023-05-06T20:58:16.547Z,7.10
2023-05-06T21:00:45.895Z,7.10
2023-05-06T21:03:15.254Z,7.10
2023-05-06T21:05:44.525Z,7.10
2023-05-06T21:08:13.756Z,7.10
2023-05-06T21:10:43.151Z,7.10
2023-05-06T21:13:12.329Z,7.10
2023-05-06T21:15:42.974Z,7.10
2023-05-06T21:18:12.241Z,7.10
2023-05-06T21:20:41.754Z,7.10
2023-05-06T21:23:11.112Z,7.00
2023-05-06T21:25:40.295Z,7.00
2023-05-06T21:28:09.728Z,7.00
2023-05-06T21:30:39.307Z,7.00
2023-05-06T21:33:11.443Z,7.00
2023-05-06T21:35:40.681Z,7.00
2023-05-06T21:38:10.282Z,7.00
2023-05-06T21:40:39.599Z,7.00
2023-05-06T21:43:08.786Z,6.90
2023-05-06T21:45:38.097Z,6.90
2023-05-06T21:48:09.036Z,6.90
2023-05-06T21:50:38.344Z,6.90
2023-05-06T21:53:07.416Z,6.90
2023-05-06T21:55:37.576Z,6.90
2023-05-06T21:58:07.483Z,6.90
2023-05-06T22:00:36.943Z,6.90
2023-05-06T22:03:06.275Z,6.80
2023-05-06T22:05:36.922Z,6.90
2023-05-06T22:08:06.795Z,6.90
2023-05-06T22:10:36.237Z,6.80
2023-05-06T22:13:05.665Z,6.80
2023-05-06T22:15:34.936Z,6.80
2023-05-06T22:18:04.207Z,6.80
2023-05-06T22:20:33.371Z,6.80
2023-05-06T22:23:04.039Z,6.80
2023-05-06T22:25:33.542Z,6.70
2023-05-06T22:28:02.722Z,6.80
2023-05-06T22:30:31.881Z,6.70
2023-05-06T22:33:01.013Z,6.70
2023-05-06T22:35:30.270Z,6.70
2023-05-06T22:37:59.564Z,6.70
2023-05-06T22:40:30.399Z,6.70
2023-05-06T22:42:59.836Z,6.60
2023-05-06T22:45:28.961Z,6.60
2023-05-06T22:47:58.233Z,6.60
2023-05-06T22:50:27.594Z,6.60
2023-05-06T22:52:56.677Z,6.60
2023-05-06T22:55:25.863Z,6.60
2023-05-06T22:57:56.661Z,6.60
2023-05-06T23:00:26.065Z,6.60
2023-05-06T23:02:55.272Z,6.60
2023-05-06T23:05:24.616Z,6.60
2023-05-06T23:07:53.967Z,6.60
2023-05-06T23:10:23.062Z,6.60
2023-05-06T23:12:52.252Z,6.60
2023-05-06T23:15:23.238Z,6.60
2023-05-06T23:17:52.399Z,6.60
2023-05-06T23:20:21.682Z,6.50
2023-05-06T23:22:51.040Z,6.50
2023-05-06T23:25:20.535Z,6.60
2023-05-06T23:27:49.674Z,6.60
2023-05-06T23:30:19.039Z,6.50
2023-05-06T23:32:49.889Z,6.50
2023-05-06T23:35:19.164Z,6.60
2023-05-06T23:37:48.351Z,6.60
2023-05-06T23:40:17.516Z,6.70
2023-05-06T23:42:46.735Z,6.60
2023-05-06T23:45:15.933Z,6.60
2023-05-06T23:50:17.188Z,6.50
2023-05-06T23:52:46.562Z,6.50
2023-05-06T23:55:15.672Z,6.50
2023-05-06T23:57:44.935Z,6.50
